createdAt,value
2023-04-01T00:00:14.058Z,21.35
2023-04-01T00:01:19.408Z,21.32
2023-04-01T00:02:24.998Z,21.33
2023-04-01T00:03:30.759Z,21.3
2023-04-01T00:04:36.977Z,21.36
2023-04-01T00:05:42.545Z,21.32
2023-04-01T00:06:47.912Z,21.33
2023-04-01T00:07:53.290Z,21.32
2023-04-01T00:08:58.627Z,21.28
2023-04-01T00:10:03.970Z,21.3
2023-04-01T00:11:09.316Z,21.32
2023-04-01T00:13:20.032Z,21.29
2023-04-01T00:14:25.396Z,21.28
2023-04-01T00:15:30.932Z,21.27
2023-04-01T00:16:36.916Z,21.3
2023-04-01T00:17:42.508Z,21.32
2023-04-01T00:18:47.999Z,21.33
2023-04-01T00:19:53.438Z,21.34
2023-04-01T00:20:58.766Z,21.36
2023-04-01T00:22:04.155Z,21.36
2023-04-01T00:23:09.487Z,21.39
2023-04-01T00:24:14.836Z,21.4
2023-04-01T00:25:20.198Z,21.4
2023-04-01T00:26:25.545Z,21.4
2023-04-01T00:27:30.896Z,21.4
2023-04-01T00:28:36.264Z,21.39
2023-04-01T00:29:41.635Z,21.37
2023-04-01T00:30:47.001Z,21.36
2023-04-01T00:31:52.401Z,21.37
2023-04-01T00:32:57.987Z,21.34
2023-04-01T00:34:03.497Z,21.3
2023-04-01T00:35:08.885Z,21.32
2023-04-01T00:36:14.231Z,21.33
2023-04-01T00:37:19.736Z,21.31
2023-04-01T00:38:28.202Z,21.26
2023-04-01T00:39:33.556Z,21.24
2023-04-01T00:40:38.892Z,21.24
2023-04-01T00:41:44.223Z,21.26
2023-04-01T00:42:49.554Z,21.28
2023-04-01T00:43:54.957Z,21.29
2023-04-01T00:45:00.335Z,21.24
2023-04-01T00:46:05.720Z,21.27
2023-04-01T00:47:11.114Z,21.27
2023-04-01T00:48:16.652Z,21.24
2023-04-01T00:49:22.032Z,21.2
2023-04-01T00:50:27.383Z,21.21
2023-04-01T00:51:32.765Z,21.23
2023-04-01T00:52:38.109Z,21.23
2023-04-01T00:53:43.486Z,21.22
2023-04-01T00:54:48.927Z,21.21
2023-04-01T00:55:54.234Z,21.21
2023-04-01T00:56:59.583Z,21.2
2023-04-01T00:58:05.282Z,21.2
2023-04-01T00:59:10.614Z,21.25
2023-04-01T01:00:15.980Z,21.23
2023-04-01T01:01:21.355Z,21.2
2023-04-01T01:02:27.134Z,21.22
2023-04-01T01:03:32.791Z,21.21
2023-04-01T01:04:38.172Z,21.2
2023-04-01T01:06:54.506Z,21.23
2023-04-01T01:07:59.822Z,21.26
2023-04-01T01:09:05.196Z,21.28
2023-04-01T01:10:10.659Z,21.29
2023-04-01T01:11:16.812Z,21.29
2023-04-01T01:12:22.326Z,21.26
2023-04-01T01:13:27.668Z,21.27
2023-04-01T01:14:32.995Z,21.28
2023-04-01T01:15:38.415Z,21.3
2023-04-01T01:16:43.790Z,21.3
2023-04-01T01:17:49.322Z,21.33
2023-04-01T01:18:54.810Z,21.34
2023-04-01T01:20:00.172Z,21.35
2023-04-01T01:21:10.379Z,21.36
2023-04-01T01:22:15.834Z,21.36
2023-04-01T01:23:21.220Z,21.33
2023-04-01T01:24:26.612Z,21.34
2023-04-01T01:25:32.364Z,21.33
2023-04-01T01:26:38.363Z,21.33
2023-04-01T01:27:43.752Z,21.32
2023-04-01T01:28:49.120Z,21.3
2023-04-01T01:29:54.463Z,21.32
2023-04-01T01:30:59.952Z,21.34
2023-04-01T01:32:05.504Z,21.32
2023-04-01T01:33:11.150Z,21.29
2023-04-01T01:34:16.598Z,21.31
2023-04-01T01:35:21.966Z,21.3
2023-04-01T01:36:27.340Z,21.28
2023-04-01T01:37:32.908Z,21.27
2023-04-01T01:38:38.297Z,21.25
2023-04-01T01:39:43.657Z,21.28
2023-04-01T01:40:49.083Z,21.32
2023-04-01T01:41:54.472Z,21.33
2023-04-01T01:42:59.896Z,21.35
2023-04-01T01:44:05.257Z,21.38
2023-04-01T01:45:10.620Z,21.36
2023-04-01T01:46:15.982Z,21.36
2023-04-01T01:47:21.562Z,21.38
2023-04-01T01:48:27.001Z,21.36
2023-04-01T01:49:32.379Z,21.34
2023-04-01T01:50:37.775Z,21.38
2023-04-01T01:51:43.102Z,21.36
2023-04-01T01:52:48.453Z,21.36
2023-04-01T01:53:53.853Z,21.35
2023-04-01T01:54:59.184Z,21.36
2023-04-01T01:56:04.741Z,21.35
2023-04-01T01:57:10.143Z,21.34
2023-04-01T01:58:15.602Z,21.34
2023-04-01T01:59:20.953Z,21.35
2023-04-01T02:00:26.435Z,21.36
2023-04-01T02:01:31.888Z,21.35
2023-04-01T02:02:37.487Z,21.34
2023-04-01T02:03:42.970Z,21.34
2023-04-01T02:04:48.572Z,21.32
2023-04-01T02:05:54.116Z,21.33
2023-04-01T02:06:59.533Z,21.31
2023-04-01T02:08:04.866Z,21.33
2023-04-01T02:09:10.233Z,21.27
2023-04-01T02:10:15.813Z,21.27
2023-04-01T02:11:21.188Z,21.28
2023-04-01T02:12:26.574Z,21.29
2023-04-01T02:13:31.949Z,21.29
2023-04-01T02:14:37.295Z,21.32
2023-04-01T02:15:42.705Z,21.31
2023-04-01T02:16:48.168Z,21.33
2023-04-01T02:17:53.556Z,21.27
2023-04-01T02:18:59.024Z,21.26
2023-04-01T02:20:04.400Z,21.29
2023-04-01T02:21:09.727Z,21.27
2023-04-01T02:22:15.072Z,21.3
2023-04-01T02:23:20.457Z,21.3
2023-04-01T02:24:25.843Z,21.3
2023-04-01T02:25:34.381Z,21.28
2023-04-01T02:26:40.106Z,21.23
2023-04-01T02:27:45.477Z,21.26
2023-04-01T02:28:50.889Z,21.24
2023-04-01T02:29:56.327Z,21.23
2023-04-01T02:31:01.686Z,21.21
2023-04-01T02:32:07.213Z,21.19
2023-04-01T02:33:12.673Z,21.19
2023-04-01T02:34:18.197Z,21.19
2023-04-01T02:35:23.602Z,21.21
2023-04-01T02:36:28.974Z,21.21
2023-04-01T02:37:35.961Z,21.24
2023-04-01T02:38:44.453Z,21.26
2023-04-01T02:39:49.832Z,21.3
2023-04-01T02:40:55.165Z,21.3
2023-04-01T02:42:00.524Z,21.3
2023-04-01T02:43:05.880Z,21.31
2023-04-01T02:44:11.238Z,21.28
2023-04-01T02:45:16.632Z,21.28
2023-04-01T02:46:22.009Z,21.28
2023-04-01T02:47:27.460Z,21.28
2023-04-01T02:48:32.904Z,21.25
2023-04-01T02:49:38.268Z,21.25
2023-04-01T02:50:43.645Z,21.23
2023-04-01T02:51:49.020Z,21.24
2023-04-01T02:52:54.350Z,21.23
2023-04-01T02:53:59.706Z,21.2
2023-04-01T02:55:05.172Z,21.16
2023-04-01T02:56:10.541Z,21.23
2023-04-01T02:57:15.882Z,21.21
2023-04-01T02:58:21.493Z,21.23
2023-04-01T02:59:26.860Z,21.24
2023-04-01T03:00:32.199Z,21.24
2023-04-01T03:01:37.548Z,21.2
2023-04-01T03:02:43.092Z,21.22
2023-04-01T03:03:48.700Z,21.22
2023-04-01T03:04:54.097Z,21.22
2023-04-01T03:05:59.448Z,21.19
2023-04-01T03:07:04.770Z,21.18
2023-04-01T03:08:10.136Z,21.2
2023-04-01T03:09:15.542Z,21.17
2023-04-01T03:10:20.917Z,21.19
2023-04-01T03:11:26.276Z,21.22
2023-04-01T03:12:31.815Z,21.24
2023-04-01T03:13:37.228Z,21.24
2023-04-01T03:14:42.614Z,21.25
2023-04-01T03:15:47.964Z,21.25
2023-04-01T03:16:53.570Z,21.26
2023-04-01T03:17:59.400Z,21.25
2023-04-01T03:19:04.928Z,21.23
2023-04-01T03:20:10.307Z,21.24
2023-04-01T03:21:15.768Z,21.27
2023-04-01T03:22:21.103Z,21.27
2023-04-01T03:23:26.433Z,21.28
2023-04-01T03:24:31.804Z,21.31
2023-04-01T03:25:38.210Z,21.24
2023-04-01T03:26:43.567Z,21.24
2023-04-01T03:27:49.005Z,21.2
2023-04-01T03:28:54.362Z,21.24
2023-04-01T03:29:59.754Z,21.23
2023-04-01T03:31:05.232Z,21.23
2023-04-01T03:32:10.859Z,21.23
2023-04-01T03:33:16.240Z,21.24
2023-04-01T03:34:21.621Z,21.27
2023-04-01T03:35:26.964Z,21.24
2023-04-01T03:36:32.333Z,21.23
2023-04-01T03:37:37.857Z,21.26
2023-04-01T03:38:43.238Z,21.27
2023-04-01T03:39:48.737Z,21.3
2023-04-01T03:40:54.071Z,21.28
2023-04-01T03:41:59.432Z,21.22
2023-04-01T03:43:04.837Z,21.23
2023-04-01T03:44:10.366Z,21.23
2023-04-01T03:45:15.755Z,21.23
2023-04-01T03:46:21.249Z,21.23
2023-04-01T03:47:26.762Z,21.18
2023-04-01T03:48:32.164Z,21.22
2023-04-01T03:49:37.539Z,21.16
2023-04-01T03:50:42.907Z,21.16
2023-04-01T03:51:48.282Z,21.2
2023-04-01T03:52:53.637Z,21.21
2023-04-01T03:53:58.985Z,21.19
2023-04-01T03:55:04.319Z,21.14
2023-04-01T03:56:09.701Z,21.13
2023-04-01T03:57:15.078Z,21.11
2023-04-01T03:58:20.519Z,21.12
2023-04-01T03:59:28.499Z,21.12
2023-04-01T04:00:33.856Z,21.17
2023-04-01T04:01:39.220Z,21.17
2023-04-01T04:02:44.670Z,21.15
2023-04-01T04:03:50.465Z,21.14
2023-04-01T04:04:56.625Z,21.18
2023-04-01T04:06:02.042Z,21.17
2023-04-01T04:07:07.370Z,21.23
2023-04-01T04:08:12.761Z,21.26
2023-04-01T04:09:18.116Z,21.33
2023-04-01T04:10:23.496Z,21.39
2023-04-01T04:11:28.887Z,21.47
2023-04-01T04:12:34.232Z,21.56
2023-04-01T04:13:39.597Z,21.63
2023-04-01T04:14:44.996Z,21.72
2023-04-01T04:15:50.366Z,21.76
2023-04-01T04:16:55.833Z,21.82
2023-04-01T04:18:01.401Z,21.84
2023-04-01T04:19:06.988Z,21.89
2023-04-01T04:20:12.352Z,21.93
2023-04-01T04:21:17.733Z,21.95
2023-04-01T04:22:23.097Z,21.99
2023-04-01T04:23:28.466Z,22.01
2023-04-01T04:24:33.836Z,22.04
2023-04-01T04:25:39.182Z,22.06
2023-04-01T04:26:44.502Z,22.09
2023-04-01T04:27:49.840Z,22.11
2023-04-01T04:28:55.216Z,22.13
2023-04-01T04:30:00.654Z,22.13
2023-04-01T04:31:06.066Z,22.15
2023-04-01T04:32:11.662Z,22.16
2023-04-01T04:33:17.062Z,22.17
2023-04-01T04:34:22.427Z,22.18
2023-04-01T04:35:27.806Z,22.18
2023-04-01T04:36:33.287Z,22.19
2023-04-01T04:37:38.657Z,22.18
2023-04-01T04:38:43.998Z,22.19
2023-04-01T04:39:49.353Z,22.21
2023-04-01T04:40:54.730Z,22.21
2023-04-01T04:42:00.124Z,22.21
2023-04-01T04:43:05.477Z,22.22
2023-04-01T04:44:11.069Z,22.22
2023-04-01T04:45:16.437Z,22.21
2023-04-01T04:46:21.818Z,22.21
2023-04-01T04:47:27.406Z,22.21
2023-04-01T04:48:32.975Z,22.21
2023-04-01T04:49:38.359Z,22.19
2023-04-01T04:50:43.752Z,22.19
2023-04-01T04:51:49.145Z,22.18
2023-04-01T04:52:54.500Z,22.16
2023-04-01T04:53:59.857Z,22.14
2023-04-01T04:55:05.230Z,22.14
2023-04-01T04:56:10.618Z,22.11
2023-04-01T04:57:16.042Z,22.13
2023-04-01T04:58:21.739Z,22.1
2023-04-01T04:59:27.139Z,22.09
2023-04-01T05:00:32.506Z,22.08
2023-04-01T05:01:37.870Z,22.06
2023-04-01T05:02:43.423Z,22.04
2023-04-01T05:03:49.120Z,22.04
2023-04-01T05:04:54.517Z,22.02
2023-04-01T05:05:59.864Z,22
2023-04-01T05:07:05.252Z,21.99
2023-04-01T05:08:10.657Z,21.97
2023-04-01T05:09:16.150Z,21.94
2023-04-01T05:10:21.516Z,21.95
2023-04-01T05:11:26.870Z,21.93
2023-04-01T05:12:32.243Z,21.92
2023-04-01T05:13:37.622Z,21.91
2023-04-01T05:14:43.005Z,21.89
2023-04-01T05:15:48.360Z,21.87
2023-04-01T05:16:53.725Z,21.87
2023-04-01T05:17:59.483Z,21.85
2023-04-01T05:19:05.008Z,21.83
2023-04-01T05:20:10.338Z,21.84
2023-04-01T05:21:16.071Z,21.82
2023-04-01T05:22:23.676Z,21.82
2023-04-01T05:23:29.032Z,21.8
2023-04-01T05:24:34.471Z,21.79
2023-04-01T05:25:39.801Z,21.8
2023-04-01T05:26:46.161Z,21.79
2023-04-01T05:27:51.510Z,21.79
2023-04-01T05:28:56.872Z,21.77
2023-04-01T05:30:02.254Z,21.77
2023-04-01T05:31:07.726Z,21.77
2023-04-01T05:32:13.430Z,21.75
2023-04-01T05:33:18.786Z,21.74
2023-04-01T05:34:24.163Z,21.74
2023-04-01T05:35:30.597Z,21.75
2023-04-01T05:36:36.780Z,21.74
2023-04-01T05:37:42.188Z,21.76
2023-04-01T05:38:47.546Z,21.73
2023-04-01T05:39:52.882Z,21.72
2023-04-01T05:40:58.211Z,21.73
2023-04-01T05:42:03.561Z,21.74
2023-04-01T05:43:08.961Z,21.73
2023-04-01T05:44:14.314Z,21.75
2023-04-01T05:45:19.628Z,21.72
2023-04-01T05:46:25.087Z,21.73
2023-04-01T05:47:30.583Z,21.71
2023-04-01T05:48:36.081Z,21.74
2023-04-01T05:49:41.444Z,21.74
2023-04-01T05:50:46.835Z,21.7
2023-04-01T05:51:52.312Z,21.68
2023-04-01T05:52:57.679Z,21.69
2023-04-01T05:54:03.066Z,21.67
2023-04-01T05:55:08.433Z,21.65
2023-04-01T05:56:13.793Z,21.66
2023-04-01T05:57:22.431Z,21.64
2023-04-01T05:58:27.914Z,21.64
2023-04-01T05:59:33.325Z,21.63
2023-04-01T06:00:38.669Z,21.61
2023-04-01T06:01:44.082Z,21.62
2023-04-01T06:02:49.441Z,21.61
2023-04-01T06:03:55.128Z,21.62
2023-04-01T06:05:01.135Z,21.65
2023-04-01T06:06:06.501Z,21.67
2023-04-01T06:07:11.859Z,21.7
2023-04-01T06:08:19.709Z,21.73
2023-04-01T06:09:25.493Z,21.77
2023-04-01T06:10:30.901Z,21.77
2023-04-01T06:11:36.245Z,21.8
2023-04-01T06:12:41.696Z,21.82
2023-04-01T06:13:47.079Z,21.84
2023-04-01T06:14:52.436Z,21.86
2023-04-01T06:15:57.835Z,21.88
2023-04-01T06:17:03.260Z,21.88
2023-04-01T06:18:08.665Z,21.92
2023-04-01T06:19:14.187Z,21.93
2023-04-01T06:20:19.622Z,21.93
2023-04-01T06:21:24.996Z,21.95
2023-04-01T06:22:30.428Z,21.95
2023-04-01T06:23:35.900Z,21.98
2023-04-01T06:24:41.333Z,21.99
2023-04-01T06:25:46.673Z,21.97
2023-04-01T06:26:52.109Z,22
2023-04-01T06:27:57.470Z,22
2023-04-01T06:29:02.844Z,22
2023-04-01T06:30:08.219Z,22.01
2023-04-01T06:31:13.640Z,22
2023-04-01T06:32:19.424Z,21.99
2023-04-01T06:33:25.201Z,21.99
2023-04-01T06:34:30.569Z,21.98
2023-04-01T06:35:36.219Z,21.98
2023-04-01T06:36:42.112Z,21.96
2023-04-01T06:37:47.559Z,21.97
2023-04-01T06:38:52.929Z,21.96
2023-04-01T06:39:58.317Z,21.96
2023-04-01T06:41:03.700Z,21.97
2023-04-01T06:42:09.053Z,21.97
2023-04-01T06:43:14.390Z,21.93
2023-04-01T06:44:19.965Z,21.94
2023-04-01T06:45:25.380Z,21.93
2023-04-01T06:46:30.771Z,21.93
2023-04-01T06:47:36.296Z,21.94
2023-04-01T06:48:41.841Z,21.95
2023-04-01T06:49:47.300Z,21.95
2023-04-01T06:50:52.713Z,21.95
2023-04-01T06:51:58.068Z,21.94
2023-04-01T06:53:03.467Z,21.92
2023-04-01T06:54:08.902Z,21.94
2023-04-01T06:55:14.260Z,21.93
2023-04-01T06:56:19.591Z,21.94
2023-04-01T06:57:24.958Z,21.93
2023-04-01T06:58:30.645Z,21.91
2023-04-01T06:59:36.001Z,21.91
2023-04-01T07:00:41.647Z,21.91
2023-04-01T07:01:47.066Z,21.9
2023-04-01T07:02:52.772Z,21.89
2023-04-01T07:03:58.227Z,21.88
2023-04-01T07:05:03.676Z,21.87
2023-04-01T07:06:09.026Z,21.86
2023-04-01T07:07:14.571Z,21.86
2023-04-01T07:08:19.894Z,21.85
2023-04-01T07:09:25.471Z,21.86
2023-04-01T07:10:30.798Z,21.86
2023-04-01T07:11:36.167Z,21.84
2023-04-01T07:12:41.532Z,21.82
2023-04-01T07:13:46.990Z,21.81
2023-04-01T07:14:52.357Z,21.83
2023-04-01T07:15:57.953Z,21.83
2023-04-01T07:17:03.394Z,21.82
2023-04-01T07:18:08.955Z,21.83
2023-04-01T07:19:14.517Z,21.95
2023-04-01T07:20:19.872Z,21.94
2023-04-01T07:21:25.224Z,21.88
2023-04-01T07:22:30.571Z,21.84
2023-04-01T07:23:35.923Z,21.79
2023-04-01T07:24:41.268Z,21.75
2023-04-01T07:25:46.637Z,21.75
2023-04-01T07:26:52.030Z,21.73
2023-04-01T07:27:57.363Z,21.71
2023-04-01T07:29:02.788Z,21.69
2023-04-01T07:30:08.145Z,21.68
2023-04-01T07:31:13.505Z,21.65
2023-04-01T07:32:19.001Z,21.65
2023-04-01T07:33:24.424Z,21.63
2023-04-01T07:34:29.898Z,21.62
2023-04-01T07:35:35.381Z,21.6
2023-04-01T07:36:41.165Z,21.61
2023-04-01T07:37:46.500Z,21.62
2023-04-01T07:38:51.879Z,21.64
2023-04-01T07:39:57.357Z,21.61
2023-04-01T07:41:03.005Z,21.61
2023-04-01T07:42:08.383Z,21.6
2023-04-01T07:43:13.725Z,21.6
2023-04-01T07:44:19.079Z,21.6
2023-04-01T07:45:24.435Z,21.6
2023-04-01T07:46:30.673Z,21.6
2023-04-01T07:47:36.198Z,21.59
2023-04-01T07:48:41.792Z,21.57
2023-04-01T07:49:47.150Z,21.58
2023-04-01T07:50:53.174Z,21.55
2023-04-01T07:51:59.677Z,21.56
2023-04-01T07:53:05.078Z,21.55
2023-04-01T07:54:10.443Z,21.52
2023-04-01T07:55:15.778Z,21.52
2023-04-01T07:56:21.139Z,21.51
2023-04-01T07:57:26.534Z,21.5
2023-04-01T07:58:32.092Z,21.49
2023-04-01T07:59:37.438Z,21.51
2023-04-01T08:00:42.798Z,21.48
2023-04-01T08:01:48.175Z,21.5
2023-04-01T08:02:53.719Z,21.51
2023-04-01T08:04:00.531Z,21.49
2023-04-01T08:05:06.617Z,21.46
2023-04-01T08:06:12.023Z,21.47
2023-04-01T08:07:17.367Z,21.45
2023-04-01T08:08:22.734Z,21.45
2023-04-01T08:09:28.093Z,21.44
2023-04-01T08:10:33.442Z,21.44
2023-04-01T08:11:38.804Z,21.42
2023-04-01T08:12:46.644Z,21.45
2023-04-01T08:13:52.040Z,21.42
2023-04-01T08:14:57.381Z,21.43
2023-04-01T08:16:02.782Z,21.44
2023-04-01T08:17:08.395Z,21.4
2023-04-01T08:18:13.767Z,21.38
2023-04-01T08:19:19.161Z,21.37
2023-04-01T08:20:24.546Z,21.38
2023-04-01T08:21:29.891Z,21.41
2023-04-01T08:22:35.225Z,21.47
2023-04-01T08:23:40.553Z,21.44
2023-04-01T08:24:47.871Z,21.44
2023-04-01T08:25:53.633Z,21.46
2023-04-01T08:26:59.015Z,21.45
2023-04-01T08:28:04.361Z,21.46
2023-04-01T08:29:09.732Z,21.43
2023-04-01T08:30:15.104Z,21.45
2023-04-01T08:31:20.449Z,21.47
2023-04-01T08:32:25.948Z,21.43
2023-04-01T08:33:31.452Z,21.41
2023-04-01T08:34:36.918Z,21.39
2023-04-01T08:35:42.371Z,21.47
2023-04-01T08:36:49.540Z,21.46
2023-04-01T08:37:54.973Z,21.45
2023-04-01T08:39:00.304Z,21.46
2023-04-01T08:40:05.697Z,21.42
2023-04-01T08:41:11.063Z,21.43
2023-04-01T08:42:16.437Z,21.45
2023-04-01T08:43:21.808Z,21.42
2023-04-01T08:44:27.173Z,21.45
2023-04-01T08:45:32.790Z,21.58
2023-04-01T08:46:39.030Z,21.65
2023-04-01T08:47:44.435Z,21.64
2023-04-01T08:48:49.929Z,21.58
2023-04-01T08:49:55.274Z,21.56
2023-04-01T08:51:00.602Z,21.55
2023-04-01T08:52:09.068Z,21.52
2023-04-01T08:53:15.441Z,21.51
2023-04-01T08:54:20.913Z,21.5
2023-04-01T08:55:26.274Z,21.49
2023-04-01T08:56:31.627Z,21.49
2023-04-01T08:57:36.992Z,21.48
2023-04-01T08:58:42.369Z,21.49
2023-04-01T08:59:47.699Z,21.5
2023-04-01T09:00:53.184Z,21.5
2023-04-01T09:01:58.634Z,21.54
2023-04-01T09:03:04.357Z,21.6
2023-04-01T09:04:10.214Z,21.56
2023-04-01T09:05:15.694Z,21.55
2023-04-01T09:06:21.141Z,21.57
2023-04-01T09:07:26.589Z,21.57
2023-04-01T09:08:32.331Z,21.58
2023-04-01T09:09:37.696Z,21.58
2023-04-01T09:10:43.112Z,21.59
2023-04-01T09:11:49.116Z,21.64
2023-04-01T09:12:57.058Z,21.65
2023-04-01T09:14:02.393Z,21.65
2023-04-01T09:15:07.730Z,21.62
2023-04-01T09:16:13.122Z,21.61
2023-04-01T09:17:18.729Z,21.6
2023-04-01T09:18:24.294Z,21.61
2023-04-01T09:19:29.635Z,21.61
2023-04-01T09:20:34.987Z,21.61
2023-04-01T09:21:40.328Z,21.61
2023-04-01T09:22:45.682Z,21.61
2023-04-01T09:23:51.318Z,21.6
2023-04-01T09:24:56.664Z,21.58
2023-04-01T09:26:02.021Z,21.58
2023-04-01T09:27:07.397Z,21.6
2023-04-01T09:28:12.748Z,21.61
2023-04-01T09:29:18.193Z,21.64
2023-04-01T09:30:23.587Z,21.67
2023-04-01T09:31:28.996Z,21.64
2023-04-01T09:32:34.644Z,21.65
2023-04-01T09:33:40.095Z,21.63
2023-04-01T09:34:45.457Z,21.65
2023-04-01T09:35:50.806Z,21.67
2023-04-01T09:36:57.309Z,21.67
2023-04-01T09:38:02.658Z,21.64
2023-04-01T09:39:08.004Z,21.63
2023-04-01T09:40:13.349Z,21.64
2023-04-01T09:41:18.789Z,21.66
2023-04-01T09:42:24.224Z,21.63
2023-04-01T09:43:29.564Z,21.61
2023-04-01T09:44:34.957Z,21.61
2023-04-01T09:45:40.300Z,21.64
2023-04-01T09:46:45.693Z,21.64
2023-04-01T09:47:51.211Z,21.66
2023-04-01T09:48:56.753Z,21.64
2023-04-01T09:50:02.101Z,21.62
2023-04-01T09:51:07.476Z,21.59
2023-04-01T09:52:12.848Z,21.58
2023-04-01T09:53:18.229Z,21.58
2023-04-01T09:54:23.583Z,21.6
2023-04-01T09:55:28.904Z,21.58
2023-04-01T09:56:34.620Z,21.58
2023-04-01T09:57:40.020Z,21.56
2023-04-01T09:58:45.463Z,21.57
2023-04-01T09:59:50.811Z,21.57
2023-04-01T10:00:56.182Z,21.56
2023-04-01T10:02:01.556Z,21.57
2023-04-01T10:03:07.110Z,21.59
2023-04-01T10:04:12.641Z,21.56
2023-04-01T10:05:17.973Z,21.57
2023-04-01T10:06:23.457Z,21.56
2023-04-01T10:07:28.839Z,21.56
2023-04-01T10:08:34.220Z,21.56
2023-04-01T10:09:39.558Z,21.56
2023-04-01T10:10:44.898Z,21.54
2023-04-01T10:11:50.255Z,21.53
2023-04-01T10:12:55.708Z,21.51
2023-04-01T10:14:01.188Z,21.51
2023-04-01T10:15:06.551Z,21.5
2023-04-01T10:16:12.078Z,21.52
2023-04-01T10:17:17.617Z,21.51
2023-04-01T10:18:26.067Z,21.53
2023-04-01T10:19:31.552Z,21.51
2023-04-01T10:20:37.048Z,21.5
2023-04-01T10:21:42.394Z,21.51
2023-04-01T10:22:47.792Z,21.51
2023-04-01T10:23:53.218Z,21.52
2023-04-01T10:24:58.549Z,21.52
2023-04-01T10:26:03.945Z,21.55
2023-04-01T10:27:09.281Z,21.59
2023-04-01T10:28:14.639Z,21.58
2023-04-01T10:29:19.985Z,21.56
2023-04-01T10:30:25.432Z,21.55
2023-04-01T10:31:30.847Z,21.55
2023-04-01T10:32:36.402Z,21.55
2023-04-01T10:33:41.925Z,21.51
2023-04-01T10:34:47.316Z,21.5
2023-04-01T10:35:52.800Z,21.47
2023-04-01T10:36:58.338Z,21.51
2023-04-01T10:38:03.697Z,21.5
2023-04-01T10:39:09.147Z,21.52
2023-04-01T10:40:14.561Z,21.53
2023-04-01T10:41:20.022Z,21.53
2023-04-01T10:42:25.414Z,21.53
2023-04-01T10:43:30.790Z,21.57
2023-04-01T10:44:36.170Z,21.55
2023-04-01T10:45:41.957Z,21.55
2023-04-01T10:46:47.440Z,21.58
2023-04-01T10:47:52.846Z,21.57
2023-04-01T10:48:58.327Z,21.58
2023-04-01T10:50:03.682Z,21.59
2023-04-01T10:51:09.035Z,21.58
2023-04-01T10:52:14.377Z,21.58
2023-04-01T10:53:19.741Z,21.56
2023-04-01T10:54:25.119Z,21.55
2023-04-01T10:55:30.550Z,21.57
2023-04-01T10:56:37.692Z,21.58
2023-04-01T10:57:43.059Z,21.58
2023-04-01T10:58:48.444Z,21.57
2023-04-01T10:59:53.804Z,21.55
2023-04-01T11:00:59.188Z,21.58
2023-04-01T11:02:11.142Z,21.56
2023-04-01T11:03:17.030Z,21.56
2023-04-01T11:04:22.820Z,21.56
2023-04-01T11:05:28.183Z,21.5
2023-04-01T11:06:33.817Z,21.46
2023-04-01T11:07:39.145Z,21.52
2023-04-01T11:08:46.768Z,21.52
2023-04-01T11:09:52.192Z,21.52
2023-04-01T11:10:57.532Z,21.53
2023-04-01T11:12:02.912Z,21.49
2023-04-01T11:13:08.262Z,21.53
2023-04-01T11:14:13.614Z,21.52
2023-04-01T11:15:18.961Z,21.52
2023-04-01T11:16:24.366Z,21.56
2023-04-01T11:17:30.032Z,21.6
2023-04-01T11:18:35.495Z,21.63
2023-04-01T11:19:40.861Z,21.65
2023-04-01T11:20:46.445Z,21.65
2023-04-01T11:21:52.035Z,21.67
2023-04-01T11:22:57.397Z,21.65
2023-04-01T11:24:05.295Z,21.65
2023-04-01T11:25:11.115Z,21.65
2023-04-01T11:26:18.784Z,21.66
2023-04-01T11:27:24.136Z,21.66
2023-04-01T11:28:29.597Z,21.67
2023-04-01T11:29:34.993Z,21.68
2023-04-01T11:30:47.014Z,21.67
2023-04-01T11:31:52.493Z,21.68
2023-04-01T11:32:58.263Z,21.69
2023-04-01T11:34:03.832Z,21.67
2023-04-01T11:35:09.194Z,21.68
2023-04-01T11:36:14.604Z,21.67
2023-04-01T11:37:20.172Z,21.68
2023-04-01T11:38:25.595Z,21.65
2023-04-01T11:39:30.950Z,21.64
2023-04-01T11:40:36.291Z,21.66
2023-04-01T11:41:41.657Z,21.66
2023-04-01T11:42:47.029Z,21.66
2023-04-01T11:43:52.410Z,21.69
2023-04-01T11:44:57.924Z,21.71
2023-04-01T11:46:03.338Z,21.71
2023-04-01T11:47:08.810Z,21.73
2023-04-01T11:48:14.201Z,21.72
2023-04-01T11:49:19.702Z,21.72
2023-04-01T11:50:25.053Z,21.78
2023-04-01T11:51:30.426Z,21.74
2023-04-01T11:52:35.810Z,21.72
2023-04-01T11:53:41.174Z,21.7
2023-04-01T11:54:46.518Z,21.67
2023-04-01T11:55:51.996Z,21.61
2023-04-01T11:56:57.647Z,21.57
2023-04-01T11:58:03.085Z,21.56
2023-04-01T11:59:08.468Z,21.54
2023-04-01T12:00:13.838Z,21.56
2023-04-01T12:01:19.205Z,21.6
2023-04-01T12:02:24.605Z,21.67
2023-04-01T12:03:30.275Z,21.68
2023-04-01T12:04:36.150Z,21.69
2023-04-01T12:05:41.695Z,21.69
2023-04-01T12:06:47.045Z,21.67
2023-04-01T12:07:54.892Z,21.66
2023-04-01T12:09:00.268Z,21.64
2023-04-01T12:10:05.624Z,21.63
2023-04-01T12:11:11.002Z,21.6
2023-04-01T12:12:16.363Z,21.59
2023-04-01T12:13:21.688Z,21.58
2023-04-01T12:14:27.301Z,21.57
2023-04-01T12:15:32.743Z,21.57
2023-04-01T12:16:39.040Z,21.59
2023-04-01T12:17:44.536Z,21.58
2023-04-01T12:18:50.091Z,21.58
2023-04-01T12:19:55.501Z,21.58
2023-04-01T12:21:01.086Z,21.61
2023-04-01T12:22:06.490Z,21.64
2023-04-01T12:23:11.843Z,21.63
2023-04-01T12:24:17.190Z,21.63
2023-04-01T12:25:22.580Z,21.63
2023-04-01T12:26:31.075Z,21.64
2023-04-01T12:27:36.519Z,21.63
2023-04-01T12:28:41.849Z,21.61
2023-04-01T12:29:47.440Z,21.6
2023-04-01T12:30:52.968Z,21.58
2023-04-01T12:31:58.379Z,21.58
2023-04-01T12:33:04.094Z,21.58
2023-04-01T12:34:09.792Z,21.57
2023-04-01T12:35:15.143Z,21.55
2023-04-01T12:36:20.464Z,21.57
2023-04-01T12:37:25.819Z,21.57
2023-04-01T12:38:31.211Z,21.56
2023-04-01T12:39:36.601Z,21.56
2023-04-01T12:40:41.929Z,21.54
2023-04-01T12:41:47.305Z,21.55
2023-04-01T12:42:52.732Z,21.54
2023-04-01T12:43:58.131Z,21.54
2023-04-01T12:45:03.474Z,21.53
2023-04-01T12:46:08.832Z,21.51
2023-04-01T12:47:14.483Z,21.5
2023-04-01T12:48:19.897Z,21.49
2023-04-01T12:49:25.323Z,21.5
2023-04-01T12:50:30.679Z,21.5
2023-04-01T12:51:36.032Z,21.49
2023-04-01T12:52:41.358Z,21.5
2023-04-01T12:53:46.700Z,21.49
2023-04-01T12:54:52.158Z,21.48
2023-04-01T12:55:57.603Z,21.47
2023-04-01T12:57:02.960Z,21.48
2023-04-01T12:58:08.432Z,21.48
2023-04-01T12:59:13.799Z,21.48
2023-04-01T13:00:19.150Z,21.48
2023-04-01T13:01:24.547Z,21.48
2023-04-01T13:02:30.023Z,21.48
2023-04-01T13:03:35.535Z,21.46
2023-04-01T13:04:41.120Z,21.42
2023-04-01T13:05:46.483Z,21.4
2023-04-01T13:06:51.828Z,21.39
2023-04-01T13:07:57.318Z,21.38
2023-04-01T13:09:02.698Z,21.4
2023-04-01T13:10:08.093Z,21.44
2023-04-01T13:11:13.470Z,21.48
2023-04-01T13:12:18.868Z,21.49
2023-04-01T13:13:24.364Z,21.48
2023-04-01T13:14:31.992Z,21.45
2023-04-01T13:15:37.512Z,21.44
2023-04-01T13:16:42.988Z,21.44
2023-04-01T13:17:48.371Z,21.43
2023-04-01T13:18:53.896Z,21.42
2023-04-01T13:20:05.335Z,21.43
2023-04-01T13:21:11.449Z,21.45
2023-04-01T13:22:16.796Z,21.43
2023-04-01T13:23:22.205Z,21.42
2023-04-01T13:24:27.576Z,21.44
2023-04-01T13:25:32.930Z,21.4
2023-04-01T13:26:38.301Z,21.38
2023-04-01T13:27:43.644Z,21.38
2023-04-01T13:28:49.020Z,21.43
2023-04-01T13:29:54.358Z,21.46
2023-04-01T13:30:59.814Z,21.51
2023-04-01T13:32:05.330Z,21.52
2023-04-01T13:33:10.748Z,21.52
2023-04-01T13:34:17.505Z,21.52
2023-04-01T13:35:22.903Z,21.52
2023-04-01T13:36:28.262Z,21.52
2023-04-01T13:37:36.063Z,21.53
2023-04-01T13:38:41.545Z,21.53
2023-04-01T13:39:46.954Z,21.54
2023-04-01T13:41:02.012Z,21.54
2023-04-01T13:42:10.637Z,21.53
2023-04-01T13:43:15.975Z,21.54
2023-04-01T13:44:21.302Z,21.52
2023-04-01T13:45:26.744Z,21.5
2023-04-01T13:46:32.160Z,21.51
2023-04-01T13:47:37.736Z,21.48
2023-04-01T13:48:43.198Z,21.48
2023-04-01T13:49:48.564Z,21.49
2023-04-01T13:50:53.927Z,21.48
2023-04-01T13:51:59.341Z,21.49
2023-04-01T13:53:04.678Z,21.47
2023-04-01T13:54:10.060Z,21.48
2023-04-01T13:55:15.396Z,21.49
2023-04-01T13:56:20.758Z,21.48
2023-04-01T13:57:26.163Z,21.48
2023-04-01T13:58:32.709Z,21.49
2023-04-01T13:59:38.085Z,21.5
2023-04-01T14:00:43.418Z,21.5
2023-04-01T14:01:49.064Z,21.49
2023-04-01T14:02:55.974Z,21.49
2023-04-01T14:04:01.885Z,21.48
2023-04-01T14:05:07.495Z,21.47
2023-04-01T14:06:12.830Z,21.47
2023-04-01T14:07:18.162Z,21.47
2023-04-01T14:08:23.546Z,21.47
2023-04-01T14:09:28.896Z,21.45